Pilot Vessel Akarana — ZMT2938 — position and weather

sailwx.info

Track history (hours):
 
Tides and Currents Weather Stations Pressure Air Temp Water Temp Dewpoint Dewpoint Depression Visibility Wind Speed Wind Dir Waves Ship Positions

Pilot Vessel Akarana

Last reported at 2015-Aug-02 19:29 UTC. Time now 2015-Aug-03 02:36 UTC.
Position S 36°51' E 174°47'.

Length 15 m; draft 1.6 m.

Type: Pilot. MMSI: 512000344.

Date/timePositionNaut miles runAvg speedWind from/ knotsBaromVisibWave heightAir tempDewpointWater temp
2015-Aug-02 19:29S 36°51' E 174°47'4 0.5
2015-Aug-02 11:33S 36°47' E 174°49'4 4.0
2015-Aug-02 10:33S 36°51' E 174°47'0 0.0
2015-Aug-02 09:29S 36°51' E 174°47'5 5.9
2015-Aug-02 08:34S 36°46' E 174°49'5 5.4
2015-Aug-02 07:33S 36°51' E 174°47'0 0.0
2015-Aug-02 06:33S 36°51' E 174°47'0 0.0
2015-Aug-02 05:33S 36°51' E 174°47'0 0.0
2015-Aug-02 04:16S 36°51' E 174°47'3 4.8
2015-Aug-02 03:33S 36°48' E 174°49'3 1.5
2015-Aug-02 01:21S 36°51' E 174°47'0 0.0
2015-Aug-02 00:30S 36°51' E 174°47'0 0.0
2015-Aug-01 23:31S 36°51' E 174°47'0 0.0
2015-Aug-01 22:33S 36°51' E 174°47'4 4.3
2015-Aug-01 21:33S 36°47' E 174°49'3 2.6
2015-Aug-01 20:34S 36°44' E 174°50'7 5.5
2015-Aug-01 19:20S 36°51' E 174°47'0 0.0
2015-Aug-01 18:12S 36°51' E 174°47'2 0.4
2015-Aug-01 11:33S 36°49' E 174°49'2 2.0
2015-Aug-01 10:23S 36°51' E 174°47'0 0.0
2015-Aug-01 09:10S 36°51' E 174°47'5 8.1
2015-Aug-01 08:33S 36°46' E 174°49'3 2.5
2015-Aug-01 07:33S 36°48' E 174°49'3 1.3
2015-Aug-01 05:22S 36°51' E 174°47'0 0.0
2015-Jul-31 21:18S 36°51' E 174°47'3 3.9
2015-Jul-31 20:34S 36°48' E 174°49'3 2.5
2015-Jul-31 19:08S 36°50' E 174°45'7 1.5
2015-Jul-31 14:33S 36°45' E 174°50'7 3.2
2015-Jul-31 12:29S 36°51' E 174°47'0 0.0
2015-Jul-31 11:33S 36°51' E 174°47'8 8.4
2015-Jul-31 10:33S 36°43' E 174°51'8 2.6
2015-Jul-31 07:21S 36°51' E 174°47'6 7.8
2015-Jul-31 06:34S 36°45' E 174°50'6 5.6
2015-Jul-31 05:32S 36°50' E 174°47'0 0.3
2015-Jul-31 04:30S 36°51' E 174°47'0 0.0
2015-Jul-31 03:31S 36°51' E 174°47'4 4.5
2015-Jul-31 02:33S 36°47' E 174°49'4 4.3
2015-Jul-31 01:33S 36°51' E 174°47'0 0.0
2015-Jul-31 00:06S 36°51' E 174°47'0 0.0
2015-Jul-30 23:31S 36°51' E 174°47'0 0.0
2015-Jul-30 22:32S 36°51' E 174°47'0 0.0
2015-Jul-30 21:23S 36°51' E 174°47'0 0.0
2015-Jul-30 20:23S 36°51' E 174°47'1 1.3
2015-Jul-30 19:28S 36°51' E 174°48'1 1.2
2015-Jul-30 18:28S 36°51' E 174°47'5 5.9
2015-Jul-30 17:33S 36°46' E 174°50'5 4.7
2015-Jul-30 16:24S 36°51' E 174°47'0 0.0
2015-Jul-30 15:32S 36°51' E 174°47'0 0.0
2015-Jul-30 14:33S 36°51' E 174°47'0 0.0
2015-Jul-30 13:33S 36°51' E 174°47'0 0.0
2015-Jul-30 12:33S 36°51' E 174°47'0 0.0
2015-Jul-30 11:33S 36°51' E 174°47'3 2.7
2015-Jul-30 10:33S 36°49' E 174°49'3 2.7
2015-Jul-30 09:33S 36°51' E 174°47'0 0.0
2015-Jul-30 08:32S 36°51' E 174°47'0 0.0
2015-Jul-30 07:31S 36°51' E 174°47'0 0.0
2015-Jul-30 06:25S 36°51' E 174°47'0 0.0
2015-Jul-30 04:16S 36°51' E 174°47'3 4.0
2015-Jul-30 03:33S 36°48' E 174°48'3 3.1
2015-Jul-30 02:33S 36°45' E 174°50'6 4.5
2015-Jul-30 01:15S 36°51' E 174°47'1 1.3
2015-Jul-30 00:31S 36°50' E 174°46'1 0.5
2015-Jul-29 22:32S 36°51' E 174°47'0 0.0
2015-Jul-29 21:33S 36°51' E 174°47'0 0.0
2015-Jul-29 20:33S 36°51' E 174°47'0 0.0
2015-Jul-29 19:33S 36°51' E 174°47'0 0.0
2015-Jul-29 18:33S 36°51' E 174°47'5 5.1
2015-Jul-29 17:33S 36°46' E 174°50'5 0.2
2015-Jul-28 14:33S 36°51' E 174°47'0 0.0
2015-Jul-28 12:30S 36°51' E 174°47'0 0.0
2015-Jul-28 10:11S 36°51' E 174°47'0 0.0
2015-Jul-28 09:15S 36°51' E 174°47'0 0.0
2015-Jul-28 08:25S 36°51' E 174°47'0 0.0
2015-Jul-28 07:31S 36°51' E 174°47'0 0.0
2015-Jul-28 06:33S 36°51' E 174°47'0 0.0
2015-Jul-28 05:33S 36°51' E 174°47'4 3.8
2015-Jul-28 04:34S 36°47' E 174°49'4 1.2
2015-Jul-28 01:34S 36°51' E 174°47'0 0.0
2015-Jul-28 00:32S 36°51' E 174°47'0 0.0
2015-Jul-27 22:33S 36°51' E 174°47'0 0.2
2015-Jul-27 21:33S 36°50' E 174°47'0 0.2
2015-Jul-27 20:34S 36°51' E 174°47'0 0.0
2015-Jul-27 19:34S 36°51' E 174°47'0 0.2
2015-Jul-27 18:34S 36°50' E 174°47'4 3.5
2015-Jul-27 17:33S 36°47' E 174°49'4 3.5
2015-Jul-27 16:33S 36°50' E 174°47'0 0.0
2015-Jul-27 15:31S 36°50' E 174°47'0 0.0
2015-Jul-27 10:08S 36°51' E 174°47'3 5.1
2015-Jul-27 09:33S 36°49' E 174°50'3 2.5
2015-Jul-27 08:24S 36°51' E 174°47'0 0.0
2015-Jul-27 07:26S 36°51' E 174°47'0 0.0
2015-Jul-27 06:33S 36°51' E 174°47'0 0.0
2015-Jul-27 03:29S 36°51' E 174°47'3 3.4
2015-Jul-27 02:34S 36°48' E 174°49'4 3.6
2015-Jul-27 01:33S 36°45' E 174°50'6 3.1
2015-Jul-26 23:33S 36°51' E 174°48'1 0.1
2015-Jul-26 13:17S 36°51' E 174°47'0 0.1
2015-Jul-26 12:33S 36°51' E 174°47'4 3.9
2015-Jul-26 11:33S 36°48' E 174°50'4 3.5
2015-Jul-26 10:32S 36°50' E 174°47'0 0.2
2015-Jul-26 09:33S 36°51' E 174°47'0 0.2
2015-Jul-26 08:33S 36°51' E 174°47'0 0.0
2015-Jul-26 07:31S 36°51' E 174°47'4 3.7
2015-Jul-26 06:33S 36°47' E 174°48'4 0.6
2015-Jul-26 00:26S 36°51' E 174°47'0 0.4
2015-Jul-25 23:32S 36°50' E 174°47'1 1.4
2015-Jul-25 22:33S 36°50' E 174°45'1 1.5
2015-Jul-25 21:33S 36°51' E 174°47'4 3.9
2015-Jul-25 20:33S 36°47' E 174°49'4 3.8
2015-Jul-25 19:33S 36°51' E 174°47'0 0.0
2015-Jul-25 18:33S 36°51' E 174°47'1 1.0
2015-Jul-25 17:33S 36°50' E 174°48'1 1.0
2015-Jul-25 16:32S 36°51' E 174°47'3 0.4
2015-Jul-25 09:34S 36°49' E 174°49'3 2.7
2015-Jul-25 08:33S 36°51' E 174°47'0 0.0
2015-Jul-25 07:33S 36°51' E 174°47'0 0.0
2015-Jul-25 06:30S 36°51' E 174°47'0 0.0
2015-Jul-25 00:34S 36°51' E 174°47'3 3.3
2015-Jul-24 23:33S 36°48' E 174°49'4 3.7
2015-Jul-24 22:31S 36°50' E 174°45'1 1.5
2015-Jul-24 21:33S 36°51' E 174°47'0 0.0
2015-Jul-24 20:33S 36°51' E 174°47'0 0.0
2015-Jul-24 19:33S 36°51' E 174°47'2 2.5
2015-Jul-24 18:33S 36°50' E 174°50'2 2.4
2015-Jul-24 17:33S 36°47' E 174°49'2 0.4
2015-Jul-24 11:33S 36°45' E 174°50'6 6.2
2015-Jul-24 10:33S 36°51' E 174°47'0 0.0
2015-Jul-24 09:33S 36°51' E 174°47'0 0.0
2015-Jul-24 08:33S 36°51' E 174°47'0 0.0
2015-Jul-24 07:33S 36°51' E 174°47'0 0.0
2015-Jul-24 06:33S 36°51' E 174°47'0 0.0
2015-Jul-24 05:33S 36°51' E 174°47'4 4.2
2015-Jul-24 04:33S 36°47' E 174°49'4 3.9
2015-Jul-24 03:30S 36°51' E 174°47'0 0.0
2015-Jul-24 02:32S 36°51' E 174°47'0 0.0
2015-Jul-24 01:33S 36°51' E 174°47'0 0.0
2015-Jul-24 00:33S 36°51' E 174°47'9 4.4
2015-Jul-23 22:34S 36°43' E 174°52'4 4.3
2015-Jul-23 21:33S 36°47' E 174°49'4 4.3
2015-Jul-23 20:32S 36°51' E 174°48'1 1.3
2015-Jul-23 19:33S 36°51' E 174°47'  
Track history (hours):
 
Tides and Currents Weather Stations Pressure Air Temp Water Temp Dewpoint Dewpoint Depression Visibility Wind Speed Wind Dir Waves Ship Positions

Pilot Vessel Akarana

Last reported at 2015-Aug-02 19:29 UTC. Time now 2015-Aug-03 02:36 UTC.
Position S 36°51' E 174°47'.

Length 15 m; draft 1.6 m.

Type: Pilot. MMSI: 512000344.

Date/timePositionNaut miles runAvg speedWind from/ knotsBaromVisibWave heightAir tempDewpointWater temp
2015-Aug-02 19:29S 36°51' E 174°47'4 0.5
2015-Aug-02 11:33S 36°47' E 174°49'4 4.0
2015-Aug-02 10:33S 36°51' E 174°47'0 0.0
2015-Aug-02 09:29S 36°51' E 174°47'5 5.9
2015-Aug-02 08:34S 36°46' E 174°49'5 5.4
2015-Aug-02 07:33S 36°51' E 174°47'0 0.0
2015-Aug-02 06:33S 36°51' E 174°47'0 0.0
2015-Aug-02 05:33S 36°51' E 174°47'0 0.0
2015-Aug-02 04:16S 36°51' E 174°47'3 4.8
2015-Aug-02 03:33S 36°48' E 174°49'3 1.5
2015-Aug-02 01:21S 36°51' E 174°47'0 0.0
2015-Aug-02 00:30S 36°51' E 174°47'0 0.0
2015-Aug-01 23:31S 36°51' E 174°47'0 0.0
2015-Aug-01 22:33S 36°51' E 174°47'4 4.3
2015-Aug-01 21:33S 36°47' E 174°49'3 2.6
2015-Aug-01 20:34S 36°44' E 174°50'7 5.5
2015-Aug-01 19:20S 36°51' E 174°47'0 0.0
2015-Aug-01 18:12S 36°51' E 174°47'2 0.4
2015-Aug-01 11:33S 36°49' E 174°49'2 2.0
2015-Aug-01 10:23S 36°51' E 174°47'0 0.0
2015-Aug-01 09:10S 36°51' E 174°47'5 8.1
2015-Aug-01 08:33S 36°46' E 174°49'3 2.5
2015-Aug-01 07:33S 36°48' E 174°49'3 1.3
2015-Aug-01 05:22S 36°51' E 174°47'0 0.0
2015-Jul-31 21:18S 36°51' E 174°47'3 3.9
2015-Jul-31 20:34S 36°48' E 174°49'3 2.5
2015-Jul-31 19:08S 36°50' E 174°45'7 1.5
2015-Jul-31 14:33S 36°45' E 174°50'7 3.2
2015-Jul-31 12:29S 36°51' E 174°47'0 0.0
2015-Jul-31 11:33S 36°51' E 174°47'8 8.4
2015-Jul-31 10:33S 36°43' E 174°51'8 2.6
2015-Jul-31 07:21S 36°51' E 174°47'6 7.8
2015-Jul-31 06:34S 36°45' E 174°50'6 5.6
2015-Jul-31 05:32S 36°50' E 174°47'0 0.3
2015-Jul-31 04:30S 36°51' E 174°47'0 0.0
2015-Jul-31 03:31S 36°51' E 174°47'4 4.5
2015-Jul-31 02:33S 36°47' E 174°49'4 4.3
2015-Jul-31 01:33S 36°51' E 174°47'0 0.0
2015-Jul-31 00:06S 36°51' E 174°47'0 0.0
2015-Jul-30 23:31S 36°51' E 174°47'0 0.0
2015-Jul-30 22:32S 36°51' E 174°47'0 0.0
2015-Jul-30 21:23S 36°51' E 174°47'0 0.0
2015-Jul-30 20:23S 36°51' E 174°47'1 1.3
2015-Jul-30 19:28S 36°51' E 174°48'1 1.2
2015-Jul-30 18:28S 36°51' E 174°47'5 5.9
2015-Jul-30 17:33S 36°46' E 174°50'5 4.7
2015-Jul-30 16:24S 36°51' E 174°47'0 0.0
2015-Jul-30 15:32S 36°51' E 174°47'0 0.0
2015-Jul-30 14:33S 36°51' E 174°47'0 0.0
2015-Jul-30 13:33S 36°51' E 174°47'0 0.0
2015-Jul-30 12:33S 36°51' E 174°47'0 0.0
2015-Jul-30 11:33S 36°51' E 174°47'3 2.7
2015-Jul-30 10:33S 36°49' E 174°49'3 2.7
2015-Jul-30 09:33S 36°51' E 174°47'0 0.0
2015-Jul-30 08:32S 36°51' E 174°47'0 0.0
2015-Jul-30 07:31S 36°51' E 174°47'0 0.0
2015-Jul-30 06:25S 36°51' E 174°47'0 0.0
2015-Jul-30 04:16S 36°51' E 174°47'3 4.0
2015-Jul-30 03:33S 36°48' E 174°48'3 3.1
2015-Jul-30 02:33S 36°45' E 174°50'6 4.5
2015-Jul-30 01:15S 36°51' E 174°47'1 1.3
2015-Jul-30 00:31S 36°50' E 174°46'1 0.5
2015-Jul-29 22:32S 36°51' E 174°47'0 0.0
2015-Jul-29 21:33S 36°51' E 174°47'0 0.0
2015-Jul-29 20:33S 36°51' E 174°47'0 0.0
2015-Jul-29 19:33S 36°51' E 174°47'0 0.0
2015-Jul-29 18:33S 36°51' E 174°47'5 5.1
2015-Jul-29 17:33S 36°46' E 174°50'5 0.2
2015-Jul-28 14:33S 36°51' E 174°47'0 0.0
2015-Jul-28 12:30S 36°51' E 174°47'0 0.0
2015-Jul-28 10:11S 36°51' E 174°47'0 0.0
2015-Jul-28 09:15S 36°51' E 174°47'0 0.0
2015-Jul-28 08:25S 36°51' E 174°47'0 0.0
2015-Jul-28 07:31S 36°51' E 174°47'0 0.0
2015-Jul-28 06:33S 36°51' E 174°47'0 0.0
2015-Jul-28 05:33S 36°51' E 174°47'4 3.8
2015-Jul-28 04:34S 36°47' E 174°49'4 1.2
2015-Jul-28 01:34S 36°51' E 174°47'0 0.0
2015-Jul-28 00:32S 36°51' E 174°47'0 0.0
2015-Jul-27 22:33S 36°51' E 174°47'0 0.2
2015-Jul-27 21:33S 36°50' E 174°47'0 0.2
2015-Jul-27 20:34S 36°51' E 174°47'0 0.0
2015-Jul-27 19:34S 36°51' E 174°47'0 0.2
2015-Jul-27 18:34S 36°50' E 174°47'4 3.5
2015-Jul-27 17:33S 36°47' E 174°49'4 3.5
2015-Jul-27 16:33S 36°50' E 174°47'0 0.0
2015-Jul-27 15:31S 36°50' E 174°47'0 0.0
2015-Jul-27 10:08S 36°51' E 174°47'3 5.1
2015-Jul-27 09:33S 36°49' E 174°50'3 2.5
2015-Jul-27 08:24S 36°51' E 174°47'0 0.0
2015-Jul-27 07:26S 36°51' E 174°47'0 0.0
2015-Jul-27 06:33S 36°51' E 174°47'0 0.0
2015-Jul-27 03:29S 36°51' E 174°47'3 3.4
2015-Jul-27 02:34S 36°48' E 174°49'4 3.6
2015-Jul-27 01:33S 36°45' E 174°50'6 3.1
2015-Jul-26 23:33S 36°51' E 174°48'1 0.1
2015-Jul-26 13:17S 36°51' E 174°47'0 0.1
2015-Jul-26 12:33S 36°51' E 174°47'4 3.9
2015-Jul-26 11:33S 36°48' E 174°50'4 3.5
2015-Jul-26 10:32S 36°50' E 174°47'0 0.2
2015-Jul-26 09:33S 36°51' E 174°47'0 0.2
2015-Jul-26 08:33S 36°51' E 174°47'0 0.0
2015-Jul-26 07:31S 36°51' E 174°47'4 3.7
2015-Jul-26 06:33S 36°47' E 174°48'4 0.6
2015-Jul-26 00:26S 36°51' E 174°47'0 0.4
2015-Jul-25 23:32S 36°50' E 174°47'1 1.4
2015-Jul-25 22:33S 36°50' E 174°45'1 1.5
2015-Jul-25 21:33S 36°51' E 174°47'4 3.9
2015-Jul-25 20:33S 36°47' E 174°49'4 3.8
2015-Jul-25 19:33S 36°51' E 174°47'0 0.0
2015-Jul-25 18:33S 36°51' E 174°47'1 1.0
2015-Jul-25 17:33S 36°50' E 174°48'1 1.0
2015-Jul-25 16:32S 36°51' E 174°47'3 0.4
2015-Jul-25 09:34S 36°49' E 174°49'3 2.7
2015-Jul-25 08:33S 36°51' E 174°47'0 0.0
2015-Jul-25 07:33S 36°51' E 174°47'0 0.0
2015-Jul-25 06:30S 36°51' E 174°47'0 0.0
2015-Jul-25 00:34S 36°51' E 174°47'3 3.3
2015-Jul-24 23:33S 36°48' E 174°49'4 3.7
2015-Jul-24 22:31S 36°50' E 174°45'1 1.5
2015-Jul-24 21:33S 36°51' E 174°47'0 0.0
2015-Jul-24 20:33S 36°51' E 174°47'0 0.0
2015-Jul-24 19:33S 36°51' E 174°47'2 2.5
2015-Jul-24 18:33S 36°50' E 174°50'2 2.4
2015-Jul-24 17:33S 36°47' E 174°49'2 0.4
2015-Jul-24 11:33S 36°45' E 174°50'6 6.2
2015-Jul-24 10:33S 36°51' E 174°47'0 0.0
2015-Jul-24 09:33S 36°51' E 174°47'0 0.0
2015-Jul-24 08:33S 36°51' E 174°47'0 0.0
2015-Jul-24 07:33S 36°51' E 174°47'0 0.0
2015-Jul-24 06:33S 36°51' E 174°47'0 0.0
2015-Jul-24 05:33S 36°51' E 174°47'4 4.2
2015-Jul-24 04:33S 36°47' E 174°49'4 3.9
2015-Jul-24 03:30S 36°51' E 174°47'0 0.0
2015-Jul-24 02:32S 36°51' E 174°47'0 0.0
2015-Jul-24 01:33S 36°51' E 174°47'0 0.0
2015-Jul-24 00:33S 36°51' E 174°47'9 4.4
2015-Jul-23 22:34S 36°43' E 174°52'4 4.3
2015-Jul-23 21:33S 36°47' E 174°49'4 4.3
2015-Jul-23 20:32S 36°51' E 174°48'1 1.3
2015-Jul-23 19:33S 36°51' E 174°47'  

Dump ship's entire track history